sensor_id;sensor_type;location;lat;lon;timestamp;P1;durP1;ratioP1;P2;durP2;ratioP2
1140;SDS011;559;48.628;8.924;2022-12-29T00:01:24;22.98;;;22.20;;
1140;SDS011;559;48.628;8.924;2022-12-29T00:03:50;23.52;;;22.45;;
1140;SDS011;559;48.628;8.924;2022-12-29T00:06:17;22.33;;;21.60;;
1140;SDS011;559;48.628;8.924;2022-12-29T00:08:45;23.45;;;22.65;;
1140;SDS011;559;48.628;8.924;2022-12-29T00:11:12;20.67;;;20.15;;
1140;SDS011;559;48.628;8.924;2022-12-29T00:13:42;21.40;;;20.80;;
1140;SDS011;559;48.628;8.924;2022-12-29T00:16:26;21.67;;;21.08;;
1140;SDS011;559;48.628;8.924;2022-12-29T00:18:53;21.67;;;20.88;;
1140;SDS011;559;48.628;8.924;2022-12-29T00:21:21;20.75;;;20.05;;
1140;SDS011;559;48.628;8.924;2022-12-29T00:24:08;20.95;;;20.25;;
1140;SDS011;559;48.628;8.924;2022-12-29T00:26:55;22.17;;;21.00;;
1140;SDS011;559;48.628;8.924;2022-12-29T00:29:40;19.85;;;19.35;;
1140;SDS011;559;48.628;8.924;2022-12-29T00:32:24;19.02;;;18.42;;
1140;SDS011;559;48.628;8.924;2022-12-29T00:35:09;20.35;;;19.63;;
1140;SDS011;559;48.628;8.924;2022-12-29T00:37:37;20.13;;;19.52;;
1140;SDS011;559;48.628;8.924;2022-12-29T00:40:24;20.45;;;19.95;;
1140;SDS011;559;48.628;8.924;2022-12-29T00:43:08;22.33;;;21.60;;
1140;SDS011;559;48.628;8.924;2022-12-29T00:45:49;21.60;;;20.98;;
1140;SDS011;559;48.628;8.924;2022-12-29T00:48:15;21.52;;;20.92;;
1140;SDS011;559;48.628;8.924;2022-12-29T00:51:02;20.67;;;20.00;;
1140;SDS011;559;48.628;8.924;2022-12-29T00:53:28;19.47;;;18.97;;
1140;SDS011;559;48.628;8.924;2022-12-29T00:55:56;19.45;;;18.85;;
1140;SDS011;559;48.628;8.924;2022-12-29T00:58:22;19.63;;;18.88;;
1140;SDS011;559;48.628;8.924;2022-12-29T01:00:49;19.90;;;19.30;;
1140;SDS011;559;48.628;8.924;2022-12-29T01:03:15;19.63;;;19.02;;
1140;SDS011;559;48.628;8.924;2022-12-29T01:05:42;18.88;;;18.27;;
1140;SDS011;559;48.628;8.924;2022-12-29T01:08:09;19.35;;;18.70;;
1140;SDS011;559;48.628;8.924;2022-12-29T01:10:35;18.30;;;17.80;;
1140;SDS011;559;48.628;8.924;2022-12-29T01:13:02;19.57;;;19.07;;
1140;SDS011;559;48.628;8.924;2022-12-29T01:15:29;18.52;;;17.92;;
1140;SDS011;559;48.628;8.924;2022-12-29T01:17:55;19.00;;;18.40;;
1140;SDS011;559;48.628;8.924;2022-12-29T01:20:22;19.15;;;18.50;;
1140;SDS011;559;48.628;8.924;2022-12-29T01:22:48;18.60;;;18.00;;
1140;SDS011;559;48.628;8.924;2022-12-29T01:25:15;18.10;;;17.50;;
1140;SDS011;559;48.628;8.924;2022-12-29T01:27:41;19.00;;;18.40;;
1140;SDS011;559;48.628;8.924;2022-12-29T01:30:10;18.98;;;18.35;;
1140;SDS011;559;48.628;8.924;2022-12-29T01:32:36;17.63;;;17.13;;
1140;SDS011;559;48.628;8.924;2022-12-29T01:35:03;18.85;;;18.35;;
1140;SDS011;559;48.628;8.924;2022-12-29T01:37:32;19.13;;;18.52;;
1140;SDS011;559;48.628;8.924;2022-12-29T01:39:59;19.85;;;19.25;;
1140;SDS011;559;48.628;8.924;2022-12-29T01:42:25;19.15;;;18.55;;
1140;SDS011;559;48.628;8.924;2022-12-29T01:44:53;18.70;;;18.20;;
1140;SDS011;559;48.628;8.924;2022-12-29T01:47:28;19.58;;;18.77;;
1140;SDS011;559;48.628;8.924;2022-12-29T01:49:58;19.85;;;19.25;;
1140;SDS011;559;48.628;8.924;2022-12-29T01:52:27;19.80;;;19.13;;
1140;SDS011;559;48.628;8.924;2022-12-29T01:54:55;19.17;;;18.50;;
1140;SDS011;559;48.628;8.924;2022-12-29T01:57:23;18.35;;;17.85;;
1140;SDS011;559;48.628;8.924;2022-12-29T01:59:52;19.05;;;18.40;;
1140;SDS011;559;48.628;8.924;2022-12-29T02:02:20;19.30;;;18.70;;
1140;SDS011;559;48.628;8.924;2022-12-29T02:04:48;19.00;;;18.50;;
1140;SDS011;559;48.628;8.924;2022-12-29T02:07:16;19.20;;;18.70;;
1140;SDS011;559;48.628;8.924;2022-12-29T02:09:45;21.15;;;20.55;;
1140;SDS011;559;48.628;8.924;2022-12-29T02:12:12;21.17;;;20.58;;
1140;SDS011;559;48.628;8.924;2022-12-29T02:14:39;20.60;;;19.95;;
1140;SDS011;559;48.628;8.924;2022-12-29T02:17:07;22.75;;;21.88;;
1140;SDS011;559;48.628;8.924;2022-12-29T02:22:44;24.60;;;23.88;;
1140;SDS011;559;48.628;8.924;2022-12-29T02:25:23;23.63;;;23.02;;
1140;SDS011;559;48.628;8.924;2022-12-29T02:31:16;25.13;;;24.13;;
1140;SDS011;559;48.628;8.924;2022-12-29T02:33:48;23.98;;;23.08;;
1140;SDS011;559;48.628;8.924;2022-12-29T02:36:22;24.15;;;23.45;;
1140;SDS011;559;48.628;8.924;2022-12-29T02:38:56;23.48;;;22.88;;
1140;SDS011;559;48.628;8.924;2022-12-29T02:41:28;26.10;;;25.10;;
1140;SDS011;559;48.628;8.924;2022-12-29T02:43:59;28.02;;;27.23;;
1140;SDS011;559;48.628;8.924;2022-12-29T02:46:32;28.25;;;27.42;;
1140;SDS011;559;48.628;8.924;2022-12-29T02:49:02;28.13;;;27.10;;
1140;SDS011;559;48.628;8.924;2022-12-29T02:51:33;28.83;;;27.85;;
1140;SDS011;559;48.628;8.924;2022-12-29T02:54:02;28.83;;;28.02;;
1140;SDS011;559;48.628;8.924;2022-12-29T02:56:47;30.08;;;28.95;;
1140;SDS011;559;48.628;8.924;2022-12-29T02:59:13;28.27;;;27.48;;
1140;SDS011;559;48.628;8.924;2022-12-29T03:01:49;26.52;;;25.83;;
1140;SDS011;559;48.628;8.924;2022-12-29T03:04:48;27.90;;;27.20;;
1140;SDS011;559;48.628;8.924;2022-12-29T03:07:23;27.90;;;27.17;;
1140;SDS011;559;48.628;8.924;2022-12-29T03:09:52;29.95;;;29.15;;
1140;SDS011;559;48.628;8.924;2022-12-29T03:12:24;29.75;;;28.85;;
1140;SDS011;559;48.628;8.924;2022-12-29T03:15:13;30.13;;;28.85;;
1140;SDS011;559;48.628;8.924;2022-12-29T03:18:05;30.95;;;29.92;;
1140;SDS011;559;48.628;8.924;2022-12-29T03:20:36;33.20;;;32.30;;
1140;SDS011;559;48.628;8.924;2022-12-29T03:23:05;31.70;;;30.80;;
1140;SDS011;559;48.628;8.924;2022-12-29T03:25:33;33.17;;;32.25;;
1140;SDS011;559;48.628;8.924;2022-12-29T03:28:02;36.90;;;35.90;;
1140;SDS011;559;48.628;8.924;2022-12-29T03:30:31;37.25;;;36.22;;
1140;SDS011;559;48.628;8.924;2022-12-29T03:32:59;38.05;;;37.03;;
1140;SDS011;559;48.628;8.924;2022-12-29T03:35:29;40.35;;;39.15;;
1140;SDS011;559;48.628;8.924;2022-12-29T03:37:59;42.70;;;41.33;;
1140;SDS011;559;48.628;8.924;2022-12-29T03:40:29;44.58;;;43.30;;
1140;SDS011;559;48.628;8.924;2022-12-29T03:42:57;44.60;;;43.40;;
1140;SDS011;559;48.628;8.924;2022-12-29T03:45:24;43.85;;;42.55;;
1140;SDS011;559;48.628;8.924;2022-12-29T03:47:50;43.25;;;41.92;;
1140;SDS011;559;48.628;8.924;2022-12-29T03:50:17;47.38;;;45.88;;
1140;SDS011;559;48.628;8.924;2022-12-29T03:52:45;48.08;;;46.58;;
1140;SDS011;559;48.628;8.924;2022-12-29T03:55:12;50.38;;;48.97;;
1140;SDS011;559;48.628;8.924;2022-12-29T03:57:38;52.95;;;51.45;;
1140;SDS011;559;48.628;8.924;2022-12-29T04:00:05;52.58;;;51.17;;
1140;SDS011;559;48.628;8.924;2022-12-29T04:02:32;54.78;;;53.17;;
1140;SDS011;559;48.628;8.924;2022-12-29T04:04:59;56.05;;;54.50;;
1140;SDS011;559;48.628;8.924;2022-12-29T04:07:25;57.38;;;55.70;;
1140;SDS011;559;48.628;8.924;2022-12-29T04:09:53;57.53;;;55.72;;
1140;SDS011;559;48.628;8.924;2022-12-29T04:12:20;57.53;;;55.83;;
1140;SDS011;559;48.628;8.924;2022-12-29T04:14:46;57.60;;;55.90;;
1140;SDS011;559;48.628;8.924;2022-12-29T04:17:13;61.50;;;59.70;;
1140;SDS011;559;48.628;8.924;2022-12-29T04:19:39;64.15;;;62.25;;
1140;SDS011;559;48.628;8.924;2022-12-29T04:22:06;62.83;;;60.83;;
1140;SDS011;559;48.628;8.924;2022-12-29T04:24:32;62.92;;;61.03;;
1140;SDS011;559;48.628;8.924;2022-12-29T04:27:00;65.05;;;62.95;;
1140;SDS011;559;48.628;8.924;2022-12-29T04:29:27;66.18;;;63.85;;
1140;SDS011;559;48.628;8.924;2022-12-29T04:31:53;67.28;;;65.18;;
1140;SDS011;559;48.628;8.924;2022-12-29T04:34:20;68.20;;;66.00;;
1140;SDS011;559;48.628;8.924;2022-12-29T04:36:46;66.40;;;64.30;;
1140;SDS011;559;48.628;8.924;2022-12-29T04:39:13;68.88;;;66.38;;
1140;SDS011;559;48.628;8.924;2022-12-29T04:41:40;66.30;;;64.20;;
1140;SDS011;559;48.628;8.924;2022-12-29T04:44:07;69.93;;;67.53;;
1140;SDS011;559;48.628;8.924;2022-12-29T04:46:34;70.15;;;67.95;;
1140;SDS011;559;48.628;8.924;2022-12-29T04:49:00;67.82;;;65.43;;
1140;SDS011;559;48.628;8.924;2022-12-29T04:51:32;70.78;;;68.57;;
1140;SDS011;559;48.628;8.924;2022-12-29T04:53:59;75.38;;;72.90;;
1140;SDS011;559;48.628;8.924;2022-12-29T04:56:25;72.15;;;69.55;;
1140;SDS011;559;48.628;8.924;2022-12-29T04:58:52;74.30;;;72.00;;
1140;SDS011;559;48.628;8.924;2022-12-29T05:01:20;70.22;;;68.05;;
1140;SDS011;559;48.628;8.924;2022-12-29T05:03:46;71.82;;;69.53;;
1140;SDS011;559;48.628;8.924;2022-12-29T05:06:13;75.85;;;73.55;;
1140;SDS011;559;48.628;8.924;2022-12-29T05:08:39;75.18;;;72.85;;
1140;SDS011;559;48.628;8.924;2022-12-29T05:11:06;74.18;;;71.90;;
1140;SDS011;559;48.628;8.924;2022-12-29T05:13:32;77.97;;;75.57;;
1140;SDS011;559;48.628;8.924;2022-12-29T05:15:59;73.72;;;71.32;;
1140;SDS011;559;48.628;8.924;2022-12-29T05:18:26;75.63;;;73.22;;
1140;SDS011;559;48.628;8.924;2022-12-29T05:20:53;78.70;;;76.10;;
1140;SDS011;559;48.628;8.924;2022-12-29T05:23:19;78.78;;;76.32;;
1140;SDS011;559;48.628;8.924;2022-12-29T05:25:46;78.35;;;76.05;;
1140;SDS011;559;48.628;8.924;2022-12-29T05:28:13;77.95;;;75.53;;
1140;SDS011;559;48.628;8.924;2022-12-29T05:30:39;84.38;;;81.78;;
1140;SDS011;559;48.628;8.924;2022-12-29T05:33:06;82.38;;;79.68;;
1140;SDS011;559;48.628;8.924;2022-12-29T05:35:34;80.05;;;77.55;;
1140;SDS011;559;48.628;8.924;2022-12-29T05:38:00;81.18;;;78.68;;
1140;SDS011;559;48.628;8.924;2022-12-29T05:40:27;81.05;;;78.55;;
1140;SDS011;559;48.628;8.924;2022-12-29T05:42:53;81.15;;;78.55;;
1140;SDS011;559;48.628;8.924;2022-12-29T05:45:20;81.93;;;79.43;;
1140;SDS011;559;48.628;8.924;2022-12-29T05:47:46;83.95;;;81.35;;
1140;SDS011;559;48.628;8.924;2022-12-29T05:50:13;84.63;;;82.03;;
1140;SDS011;559;48.628;8.924;2022-12-29T05:52:41;86.85;;;84.13;;
1140;SDS011;559;48.628;8.924;2022-12-29T05:55:07;82.88;;;80.45;;
1140;SDS011;559;48.628;8.924;2022-12-29T05:57:34;91.53;;;88.35;;
1140;SDS011;559;48.628;8.924;2022-12-29T06:00:00;85.57;;;83.13;;
1140;SDS011;559;48.628;8.924;2022-12-29T06:02:27;81.22;;;78.82;;
1140;SDS011;559;48.628;8.924;2022-12-29T06:04:54;82.35;;;79.85;;
1140;SDS011;559;48.628;8.924;2022-12-29T06:07:20;85.00;;;82.57;;
1140;SDS011;559;48.628;8.924;2022-12-29T06:09:48;88.43;;;85.82;;
1140;SDS011;559;48.628;8.924;2022-12-29T06:12:14;93.32;;;90.63;;
1140;SDS011;559;48.628;8.924;2022-12-29T06:14:41;87.63;;;84.90;;
1140;SDS011;559;48.628;8.924;2022-12-29T06:17:07;86.13;;;83.63;;
1140;SDS011;559;48.628;8.924;2022-12-29T06:19:34;84.72;;;81.97;;
1140;SDS011;559;48.628;8.924;2022-12-29T06:22:01;85.55;;;83.05;;
1140;SDS011;559;48.628;8.924;2022-12-29T06:24:27;84.13;;;81.65;;
1140;SDS011;559;48.628;8.924;2022-12-29T06:26:55;88.47;;;85.70;;
1140;SDS011;559;48.628;8.924;2022-12-29T06:29:22;89.72;;;87.13;;
1140;SDS011;559;48.628;8.924;2022-12-29T06:31:48;85.20;;;82.80;;
1140;SDS011;559;48.628;8.924;2022-12-29T06:34:16;86.50;;;83.90;;
1140;SDS011;559;48.628;8.924;2022-12-29T06:36:42;85.55;;;83.15;;
1140;SDS011;559;48.628;8.924;2022-12-29T06:39:09;85.20;;;82.75;;
1140;SDS011;559;48.628;8.924;2022-12-29T06:41:36;85.70;;;82.95;;
1140;SDS011;559;48.628;8.924;2022-12-29T06:44:04;82.90;;;80.63;;
1140;SDS011;559;48.628;8.924;2022-12-29T06:46:30;85.78;;;83.30;;
1140;SDS011;559;48.628;8.924;2022-12-29T06:48:57;81.90;;;79.60;;
1140;SDS011;559;48.628;8.924;2022-12-29T06:51:23;83.18;;;80.78;;
1140;SDS011;559;48.628;8.924;2022-12-29T06:53:50;85.28;;;82.88;;
1140;SDS011;559;48.628;8.924;2022-12-29T06:56:16;84.65;;;82.25;;
1140;SDS011;559;48.628;8.924;2022-12-29T06:58:43;86.30;;;83.80;;
1140;SDS011;559;48.628;8.924;2022-12-29T07:01:10;92.55;;;89.95;;
1140;SDS011;559;48.628;8.924;2022-12-29T07:03:37;91.57;;;88.97;;
1140;SDS011;559;48.628;8.924;2022-12-29T07:06:04;90.43;;;87.82;;
1140;SDS011;559;48.628;8.924;2022-12-29T07:08:31;90.10;;;87.40;;
1140;SDS011;559;48.628;8.924;2022-12-29T07:10:57;84.55;;;82.15;;
1140;SDS011;559;48.628;8.924;2022-12-29T07:13:23;95.97;;;92.97;;
1140;SDS011;559;48.628;8.924;2022-12-29T07:15:50;90.55;;;87.85;;
1140;SDS011;559;48.628;8.924;2022-12-29T07:18:18;91.30;;;88.50;;
1140;SDS011;559;48.628;8.924;2022-12-29T07:20:44;89.10;;;86.40;;
1140;SDS011;559;48.628;8.924;2022-12-29T07:23:11;88.90;;;86.15;;
1140;SDS011;559;48.628;8.924;2022-12-29T07:25:37;92.90;;;90.10;;
1140;SDS011;559;48.628;8.924;2022-12-29T07:28:05;91.78;;;88.97;;
1140;SDS011;559;48.628;8.924;2022-12-29T07:30:32;91.60;;;88.70;;
1140;SDS011;559;48.628;8.924;2022-12-29T07:32:59;92.22;;;89.22;;
1140;SDS011;559;48.628;8.924;2022-12-29T07:35:26;92.07;;;89.07;;
1140;SDS011;559;48.628;8.924;2022-12-29T07:37:53;88.55;;;85.85;;
1140;SDS011;559;48.628;8.924;2022-12-29T07:40:19;89.03;;;86.32;;
1140;SDS011;559;48.628;8.924;2022-12-29T07:42:46;91.65;;;88.75;;
1140;SDS011;559;48.628;8.924;2022-12-29T07:45:12;92.30;;;89.40;;
1140;SDS011;559;48.628;8.924;2022-12-29T07:47:39;94.47;;;91.47;;
1140;SDS011;559;48.628;8.924;2022-12-29T07:50:06;93.70;;;90.90;;
1140;SDS011;559;48.628;8.924;2022-12-29T07:52:34;95.82;;;92.93;;
1140;SDS011;559;48.628;8.924;2022-12-29T07:55:00;93.57;;;90.50;;
1140;SDS011;559;48.628;8.924;2022-12-29T07:57:27;98.78;;;95.75;;
1140;SDS011;559;48.628;8.924;2022-12-29T07:59:53;98.40;;;95.40;;
1140;SDS011;559;48.628;8.924;2022-12-29T08:02:19;93.20;;;90.40;;
1140;SDS011;559;48.628;8.924;2022-12-29T08:04:46;97.07;;;94.10;;
1140;SDS011;559;48.628;8.924;2022-12-29T08:07:12;95.85;;;92.95;;
1140;SDS011;559;48.628;8.924;2022-12-29T08:09:40;96.22;;;93.22;;
1140;SDS011;559;48.628;8.924;2022-12-29T08:12:08;97.85;;;94.75;;
1140;SDS011;559;48.628;8.924;2022-12-29T08:14:35;98.03;;;94.93;;
1140;SDS011;559;48.628;8.924;2022-12-29T08:17:01;97.63;;;94.68;;
1140;SDS011;559;48.628;8.924;2022-12-29T08:19:28;102.60;;;99.50;;
1140;SDS011;559;48.628;8.924;2022-12-29T08:21:54;94.30;;;91.50;;
1140;SDS011;559;48.628;8.924;2022-12-29T08:24:21;97.07;;;94.18;;
1140;SDS011;559;48.628;8.924;2022-12-29T08:26:49;99.07;;;95.88;;
1140;SDS011;559;48.628;8.924;2022-12-29T08:29:15;102.28;;;99.18;;
1140;SDS011;559;48.628;8.924;2022-12-29T08:31:41;99.07;;;96.15;;
1140;SDS011;559;48.628;8.924;2022-12-29T08:34:09;102.80;;;99.60;;
1140;SDS011;559;48.628;8.924;2022-12-29T08:36:36;96.40;;;93.50;;
1140;SDS011;559;48.628;8.924;2022-12-29T08:39:02;99.28;;;96.38;;
1140;SDS011;559;48.628;8.924;2022-12-29T08:41:29;98.40;;;95.40;;
1140;SDS011;559;48.628;8.924;2022-12-29T08:43:57;100.18;;;97.18;;
1140;SDS011;559;48.628;8.924;2022-12-29T08:46:24;95.63;;;92.72;;
1140;SDS011;559;48.628;8.924;2022-12-29T08:48:50;83.40;;;80.82;;
1140;SDS011;559;48.628;8.924;2022-12-29T08:51:17;90.18;;;87.70;;
1140;SDS011;559;48.628;8.924;2022-12-29T08:53:43;85.40;;;83.00;;
1140;SDS011;559;48.628;8.924;2022-12-29T08:56:10;85.40;;;82.40;;
1140;SDS011;559;48.628;8.924;2022-12-29T08:58:37;79.80;;;77.60;;
1140;SDS011;559;48.628;8.924;2022-12-29T09:01:05;81.07;;;78.78;;
1140;SDS011;559;48.628;8.924;2022-12-29T09:03:32;81.10;;;78.70;;
1140;SDS011;559;48.628;8.924;2022-12-29T09:06:00;83.55;;;81.15;;
1140;SDS011;559;48.628;8.924;2022-12-29T09:08:26;83.38;;;81.18;;
1140;SDS011;559;48.628;8.924;2022-12-29T09:10:53;78.88;;;76.68;;
1140;SDS011;559;48.628;8.924;2022-12-29T09:13:19;73.32;;;71.07;;
1140;SDS011;559;48.628;8.924;2022-12-29T09:15:46;62.08;;;60.15;;
1140;SDS011;559;48.628;8.924;2022-12-29T09:18:14;65.32;;;63.58;;
1140;SDS011;559;48.628;8.924;2022-12-29T09:20:40;58.97;;;57.25;;
1140;SDS011;559;48.628;8.924;2022-12-29T09:23:07;61.60;;;59.90;;
1140;SDS011;559;48.628;8.924;2022-12-29T09:25:34;56.10;;;54.60;;
1140;SDS011;559;48.628;8.924;2022-12-29T09:28:00;56.67;;;55.05;;
1140;SDS011;559;48.628;8.924;2022-12-29T09:30:32;53.90;;;52.40;;
1140;SDS011;559;48.628;8.924;2022-12-29T09:32:59;51.40;;;49.90;;
1140;SDS011;559;48.628;8.924;2022-12-29T09:35:26;48.58;;;47.15;;
1140;SDS011;559;48.628;8.924;2022-12-29T09:37:53;52.60;;;51.05;;
1140;SDS011;559;48.628;8.924;2022-12-29T09:40:24;52.80;;;51.40;;
1140;SDS011;559;48.628;8.924;2022-12-29T09:42:59;50.05;;;48.70;;
1140;SDS011;559;48.628;8.924;2022-12-29T09:45:51;45.00;;;43.80;;
1140;SDS011;559;48.628;8.924;2022-12-29T09:48:22;46.78;;;45.30;;
1140;SDS011;559;48.628;8.924;2022-12-29T09:50:54;50.70;;;49.25;;
1140;SDS011;559;48.628;8.924;2022-12-29T09:53:24;49.65;;;48.25;;
1140;SDS011;559;48.628;8.924;2022-12-29T09:55:53;51.08;;;49.50;;
1140;SDS011;559;48.628;8.924;2022-12-29T09:58:21;49.20;;;47.90;;
1140;SDS011;559;48.628;8.924;2022-12-29T10:00:52;50.17;;;48.67;;
1140;SDS011;559;48.628;8.924;2022-12-29T10:03:22;57.95;;;56.40;;
1140;SDS011;559;48.628;8.924;2022-12-29T10:05:52;54.55;;;53.15;;
1140;SDS011;559;48.628;8.924;2022-12-29T10:08:25;55.35;;;53.85;;
1140;SDS011;559;48.628;8.924;2022-12-29T10:10:56;84.57;;;82.28;;
1140;SDS011;559;48.628;8.924;2022-12-29T10:13:27;68.43;;;66.32;;
1140;SDS011;559;48.628;8.924;2022-12-29T10:15:58;68.90;;;66.90;;
1140;SDS011;559;48.628;8.924;2022-12-29T10:18:45;76.88;;;74.70;;
1140;SDS011;559;48.628;8.924;2022-12-29T10:21:36;66.70;;;64.80;;
1140;SDS011;559;48.628;8.924;2022-12-29T10:24:11;66.38;;;64.28;;
1140;SDS011;559;48.628;8.924;2022-12-29T10:26:39;69.43;;;67.50;;
1140;SDS011;559;48.628;8.924;2022-12-29T10:29:10;63.65;;;61.95;;
1140;SDS011;559;48.628;8.924;2022-12-29T10:31:40;58.75;;;57.15;;
1140;SDS011;559;48.628;8.924;2022-12-29T10:34:12;57.65;;;56.05;;
1140;SDS011;559;48.628;8.924;2022-12-29T10:36:44;56.33;;;54.83;;
1140;SDS011;559;48.628;8.924;2022-12-29T10:39:14;53.90;;;52.40;;
1140;SDS011;559;48.628;8.924;2022-12-29T10:41:46;56.90;;;55.40;;
1140;SDS011;559;48.628;8.924;2022-12-29T10:44:16;61.75;;;59.92;;
1140;SDS011;559;48.628;8.924;2022-12-29T10:46:54;61.45;;;59.65;;
1140;SDS011;559;48.628;8.924;2022-12-29T10:49:22;62.00;;;60.20;;
1140;SDS011;559;48.628;8.924;2022-12-29T10:51:52;62.97;;;61.28;;
1140;SDS011;559;48.628;8.924;2022-12-29T10:54:21;74.85;;;72.95;;
1140;SDS011;559;48.628;8.924;2022-12-29T10:56:50;75.65;;;73.22;;
1140;SDS011;559;48.628;8.924;2022-12-29T10:59:19;76.63;;;74.63;;
1140;SDS011;559;48.628;8.924;2022-12-29T11:01:50;80.28;;;78.07;;
1140;SDS011;559;48.628;8.924;2022-12-29T11:07:14;78.25;;;76.13;;
1140;SDS011;559;48.628;8.924;2022-12-29T11:09:43;85.25;;;82.88;;
1140;SDS011;559;48.628;8.924;2022-12-29T11:12:17;89.28;;;86.57;;
1140;SDS011;559;48.628;8.924;2022-12-29T11:14:46;91.53;;;88.97;;
1140;SDS011;559;48.628;8.924;2022-12-29T11:17:14;92.05;;;89.40;;
1140;SDS011;559;48.628;8.924;2022-12-29T11:19:42;99.28;;;96.20;;
1140;SDS011;559;48.628;8.924;2022-12-29T11:22:12;101.60;;;98.40;;
1140;SDS011;559;48.628;8.924;2022-12-29T11:24:46;105.93;;;102.72;;
1140;SDS011;559;48.628;8.924;2022-12-29T11:27:14;112.30;;;108.70;;
1140;SDS011;559;48.628;8.924;2022-12-29T11:29:42;110.47;;;107.00;;
1140;SDS011;559;48.628;8.924;2022-12-29T11:32:11;115.45;;;111.55;;
1140;SDS011;559;48.628;8.924;2022-12-29T11:34:39;113.75;;;110.05;;
1140;SDS011;559;48.628;8.924;2022-12-29T11:37:06;113.10;;;109.40;;
1140;SDS011;559;48.628;8.924;2022-12-29T11:39:39;111.70;;;108.30;;
1140;SDS011;559;48.628;8.924;2022-12-29T11:42:12;109.45;;;106.05;;
1140;SDS011;559;48.628;8.924;2022-12-29T11:44:42;111.38;;;107.68;;
1140;SDS011;559;48.628;8.924;2022-12-29T11:47:11;110.45;;;106.95;;
1140;SDS011;559;48.628;8.924;2022-12-29T11:49:48;112.63;;;108.95;;
1140;SDS011;559;48.628;8.924;2022-12-29T11:52:15;110.78;;;106.97;;
1140;SDS011;559;48.628;8.924;2022-12-29T11:54:44;113.18;;;109.32;;
1140;SDS011;559;48.628;8.924;2022-12-29T11:57:10;106.95;;;103.15;;
1140;SDS011;559;48.628;8.924;2022-12-29T11:59:41;116.75;;;112.53;;
1140;SDS011;559;48.628;8.924;2022-12-29T12:02:22;106.72;;;102.78;;
1140;SDS011;559;48.628;8.924;2022-12-29T12:04:56;107.55;;;103.55;;
1140;SDS011;559;48.628;8.924;2022-12-29T12:07:29;107.03;;;102.72;;
1140;SDS011;559;48.628;8.924;2022-12-29T12:10:05;102.97;;;98.95;;
1140;SDS011;559;48.628;8.924;2022-12-29T12:12:37;94.82;;;90.93;;
1140;SDS011;559;48.628;8.924;2022-12-29T12:15:07;98.13;;;93.63;;
1140;SDS011;559;48.628;8.924;2022-12-29T12:17:40;90.35;;;85.90;;
1140;SDS011;559;48.628;8.924;2022-12-29T12:20:14;85.93;;;81.78;;
1140;SDS011;559;48.628;8.924;2022-12-29T12:22:45;83.10;;;79.03;;
1140;SDS011;559;48.628;8.924;2022-12-29T12:25:17;83.50;;;79.28;;
1140;SDS011;559;48.628;8.924;2022-12-29T12:27:46;80.70;;;76.60;;
1140;SDS011;559;48.628;8.924;2022-12-29T12:30:15;83.55;;;79.20;;
1140;SDS011;559;48.628;8.924;2022-12-29T12:32:44;82.97;;;78.90;;
1140;SDS011;559;48.628;8.924;2022-12-29T12:35:15;81.95;;;77.93;;
1140;SDS011;559;48.628;8.924;2022-12-29T12:37:52;81.68;;;77.40;;
1140;SDS011;559;48.628;8.924;2022-12-29T12:43:22;80.43;;;76.43;;
1140;SDS011;559;48.628;8.924;2022-12-29T12:46:00;79.35;;;75.25;;
1140;SDS011;559;48.628;8.924;2022-12-29T12:51:32;74.07;;;70.25;;
1140;SDS011;559;48.628;8.924;2022-12-29T12:54:05;74.10;;;70.20;;
1140;SDS011;559;48.628;8.924;2022-12-29T12:56:50;75.45;;;71.47;;
1140;SDS011;559;48.628;8.924;2022-12-29T12:59:26;78.57;;;74.57;;
1140;SDS011;559;48.628;8.924;2022-12-29T13:02:00;78.90;;;74.90;;
1140;SDS011;559;48.628;8.924;2022-12-29T13:07:36;83.90;;;80.00;;
1140;SDS011;559;48.628;8.924;2022-12-29T13:10:16;82.78;;;78.88;;
1140;SDS011;559;48.628;8.924;2022-12-29T13:12:51;80.68;;;76.57;;
1140;SDS011;559;48.628;8.924;2022-12-29T13:15:23;82.15;;;78.13;;
1140;SDS011;559;48.628;8.924;2022-12-29T13:17:57;80.18;;;76.18;;
1140;SDS011;559;48.628;8.924;2022-12-29T13:20:31;77.15;;;73.35;;
1140;SDS011;559;48.628;8.924;2022-12-29T13:23:02;79.85;;;75.40;;
1140;SDS011;559;48.628;8.924;2022-12-29T13:25:34;87.00;;;82.93;;
1140;SDS011;559;48.628;8.924;2022-12-29T13:28:06;84.97;;;80.88;;
1140;SDS011;559;48.628;8.924;2022-12-29T13:30:38;79.28;;;75.28;;
1140;SDS011;559;48.628;8.924;2022-12-29T13:33:11;77.68;;;73.57;;
1140;SDS011;559;48.628;8.924;2022-12-29T13:35:48;79.13;;;75.03;;
1140;SDS011;559;48.628;8.924;2022-12-29T13:38:21;77.05;;;73.05;;
1140;SDS011;559;48.628;8.924;2022-12-29T13:40:50;79.47;;;75.47;;
1140;SDS011;559;48.628;8.924;2022-12-29T13:43:20;77.70;;;73.70;;
1140;SDS011;559;48.628;8.924;2022-12-29T13:45:49;83.38;;;79.07;;
1140;SDS011;559;48.628;8.924;2022-12-29T13:48:22;77.88;;;73.88;;
1140;SDS011;559;48.628;8.924;2022-12-29T13:50:53;76.00;;;71.82;;
1140;SDS011;559;48.628;8.924;2022-12-29T13:53:23;75.45;;;71.45;;
1140;SDS011;559;48.628;8.924;2022-12-29T13:55:55;79.30;;;75.07;;
1140;SDS011;559;48.628;8.924;2022-12-29T13:58:26;79.40;;;74.80;;
1140;SDS011;559;48.628;8.924;2022-12-29T14:00:57;76.95;;;72.65;;
1140;SDS011;559;48.628;8.924;2022-12-29T14:03:41;74.53;;;70.53;;
1140;SDS011;559;48.628;8.924;2022-12-29T14:06:14;76.32;;;72.32;;
1140;SDS011;559;48.628;8.924;2022-12-29T14:08:43;74.47;;;70.55;;
1140;SDS011;559;48.628;8.924;2022-12-29T14:11:10;77.45;;;73.20;;
1140;SDS011;559;48.628;8.924;2022-12-29T14:13:40;74.97;;;71.07;;
1140;SDS011;559;48.628;8.924;2022-12-29T14:16:08;75.78;;;71.82;;
1140;SDS011;559;48.628;8.924;2022-12-29T14:18:47;72.32;;;68.43;;
1140;SDS011;559;48.628;8.924;2022-12-29T14:21:17;75.90;;;72.00;;
1140;SDS011;559;48.628;8.924;2022-12-29T14:23:47;82.93;;;78.50;;
1140;SDS011;559;48.628;8.924;2022-12-29T14:26:16;75.38;;;71.47;;
1140;SDS011;559;48.628;8.924;2022-12-29T14:28:46;79.40;;;75.20;;
1140;SDS011;559;48.628;8.924;2022-12-29T14:36:57;78.35;;;74.45;;
1140;SDS011;559;48.628;8.924;2022-12-29T14:39:32;83.93;;;79.78;;
1140;SDS011;559;48.628;8.924;2022-12-29T14:42:03;82.43;;;78.32;;
1140;SDS011;559;48.628;8.924;2022-12-29T14:44:34;84.47;;;79.97;;
1140;SDS011;559;48.628;8.924;2022-12-29T14:47:13;83.30;;;78.88;;
1140;SDS011;559;48.628;8.924;2022-12-29T14:49:42;83.43;;;79.32;;
1140;SDS011;559;48.628;8.924;2022-12-29T14:52:14;84.50;;;80.10;;
1140;SDS011;559;48.628;8.924;2022-12-29T14:54:53;89.75;;;85.35;;
1140;SDS011;559;48.628;8.924;2022-12-29T14:57:22;92.53;;;88.13;;
1140;SDS011;559;48.628;8.924;2022-12-29T15:00:08;87.88;;;83.47;;
1140;SDS011;559;48.628;8.924;2022-12-29T15:02:43;88.95;;;84.65;;
1140;SDS011;559;48.628;8.924;2022-12-29T15:05:20;93.43;;;88.93;;
1140;SDS011;559;48.628;8.924;2022-12-29T15:07:51;93.82;;;89.43;;
1140;SDS011;559;48.628;8.924;2022-12-29T15:10:18;94.38;;;89.93;;
1140;SDS011;559;48.628;8.924;2022-12-29T15:12:46;95.13;;;90.63;;
1140;SDS011;559;48.628;8.924;2022-12-29T15:15:19;93.45;;;89.05;;
1140;SDS011;559;48.628;8.924;2022-12-29T15:17:47;95.07;;;90.28;;
1140;SDS011;559;48.628;8.924;2022-12-29T15:20:14;95.07;;;90.57;;
1140;SDS011;559;48.628;8.924;2022-12-29T15:22:47;94.00;;;89.70;;
1140;SDS011;559;48.628;8.924;2022-12-29T15:25:15;87.22;;;83.00;;
1140;SDS011;559;48.628;8.924;2022-12-29T15:27:43;88.90;;;84.70;;
1140;SDS011;559;48.628;8.924;2022-12-29T15:30:15;90.22;;;85.82;;
1140;SDS011;559;48.628;8.924;2022-12-29T15:32:43;89.93;;;85.50;;
1140;SDS011;559;48.628;8.924;2022-12-29T15:35:21;89.65;;;85.30;;
1140;SDS011;559;48.628;8.924;2022-12-29T15:37:50;90.80;;;86.50;;
1140;SDS011;559;48.628;8.924;2022-12-29T15:40:21;94.60;;;90.40;;